createdAt,value
2018-06-29T00:01:30.571Z,16.40
2018-06-29T00:03:58.498Z,16.40
2018-06-29T00:06:26.033Z,16.40
2018-06-29T00:08:53.780Z,16.40
2018-06-29T00:11:21.533Z,16.50
2018-06-29T00:13:49.246Z,16.50
2018-06-29T00:16:16.981Z,16.50
2018-06-29T00:18:44.659Z,16.50
2018-06-29T00:21:12.590Z,16.50
2018-06-29T00:23:40.050Z,16.50
2018-06-29T00:26:07.779Z,16.50
2018-06-29T00:28:35.475Z,16.40
2018-06-29T00:31:03.190Z,16.40
2018-06-29T00:33:30.907Z,16.50
2018-06-29T00:35:58.646Z,16.50
2018-06-29T00:38:26.298Z,16.50
2018-06-29T00:40:53.929Z,16.50
2018-06-29T00:43:21.660Z,16.50
2018-06-29T00:45:49.396Z,16.50
2018-06-29T00:48:17.079Z,16.50
2018-06-29T00:50:44.722Z,16.50
2018-06-29T00:53:12.372Z,16.50
2018-06-29T00:55:40.003Z,16.50
2018-06-29T01:00:35.258Z,16.50
2018-06-29T01:03:02.979Z,16.50
2018-06-29T01:05:30.967Z,16.50
2018-06-29T01:07:58.624Z,16.50
2018-06-29T01:10:26.241Z,16.50
2018-06-29T01:12:53.943Z,16.40
2018-06-29T01:15:21.767Z,16.40
2018-06-29T01:17:49.473Z,16.40
2018-06-29T01:20:17.455Z,16.40
2018-06-29T01:22:45.470Z,16.50
2018-06-29T01:25:13.247Z,16.50
2018-06-29T01:27:41.012Z,16.50
2018-06-29T01:30:08.807Z,16.50
2018-06-29T01:32:36.522Z,16.50
2018-06-29T01:35:04.144Z,16.40
2018-06-29T01:37:31.891Z,16.40
2018-06-29T01:39:59.467Z,16.50
2018-06-29T01:42:27.120Z,16.50
2018-06-29T01:44:54.760Z,16.50
2018-06-29T01:52:17.682Z,16.40
2018-06-29T01:54:45.331Z,16.40
2018-06-29T01:57:13.231Z,16.40
2018-06-29T01:59:40.844Z,16.40
2018-06-29T02:02:08.236Z,16.40
2018-06-29T02:04:35.942Z,16.30
2018-06-29T02:07:03.719Z,16.30
2018-06-29T02:09:31.446Z,16.30
2018-06-29T02:11:59.152Z,16.30
2018-06-29T02:14:26.864Z,16.30
2018-06-29T02:16:54.435Z,16.30
2018-06-29T02:19:22.207Z,16.30
2018-06-29T02:26:45.214Z,16.20
2018-06-29T02:31:40.347Z,16.20
2018-06-29T02:34:08.111Z,16.20
2018-06-29T02:36:36.664Z,16.10
2018-06-29T02:41:35.071Z,16.10
2018-06-29T02:44:03.105Z,16.10
2018-06-29T02:46:30.920Z,16.00
2018-06-29T02:48:58.622Z,16.00
2018-06-29T02:51:26.311Z,16.00
2018-06-29T02:53:54.068Z,16.00
2018-06-29T02:56:21.722Z,15.90
2018-06-29T02:58:49.384Z,15.90
2018-06-29T03:01:17.098Z,15.80
2018-06-29T03:03:44.941Z,15.80
2018-06-29T03:06:12.636Z,15.80
2018-06-29T03:08:40.336Z,15.70
2018-06-29T03:11:08.108Z,15.70
2018-06-29T03:13:35.808Z,15.70
2018-06-29T03:16:03.589Z,15.60
2018-06-29T03:18:31.301Z,15.60
2018-06-29T03:20:58.915Z,15.50
2018-06-29T03:23:26.632Z,15.60
2018-06-29T03:25:54.390Z,15.50
2018-06-29T03:30:49.826Z,15.30
2018-06-29T03:33:17.569Z,15.30
2018-06-29T03:35:45.291Z,15.20
2018-06-29T03:38:12.998Z,15.20
2018-06-29T03:40:40.712Z,15.20
2018-06-29T03:43:08.647Z,15.20
2018-06-29T03:45:36.359Z,15.10
2018-06-29T03:48:04.133Z,15.10
2018-06-29T03:50:31.782Z,14.90
2018-06-29T03:52:59.496Z,14.90
2018-06-29T03:55:27.243Z,14.90
2018-06-29T04:00:22.798Z,14.80
2018-06-29T04:02:50.468Z,14.80
2018-06-29T04:05:18.129Z,14.80
2018-06-29T04:07:45.842Z,14.70
2018-06-29T04:10:13.634Z,14.80
2018-06-29T04:12:41.348Z,14.70
2018-06-29T04:15:09.556Z,14.70
2018-06-29T04:20:05.253Z,14.80
2018-06-29T04:22:33.006Z,14.70
2018-06-29T04:25:03.567Z,14.80
2018-06-29T04:27:31.861Z,14.90
2018-06-29T04:32:27.024Z,15.00
2018-06-29T04:34:54.757Z,15.10
2018-06-29T04:37:22.390Z,15.20
2018-06-29T04:39:50.279Z,15.30
2018-06-29T04:42:18.003Z,15.30
2018-06-29T04:44:45.731Z,15.40
2018-06-29T04:47:13.447Z,15.40
2018-06-29T04:52:08.854Z,15.60
2018-06-29T04:54:36.642Z,15.60
2018-06-29T04:59:32.320Z,15.70
2018-06-29T05:02:00.099Z,15.80
2018-06-29T05:04:27.931Z,16.00
2018-06-29T05:06:55.639Z,16.20
2018-06-29T05:09:23.398Z,16.40
2018-06-29T05:11:51.271Z,16.70
2018-06-29T05:14:18.911Z,16.90
2018-06-29T05:16:46.717Z,17.00
2018-06-29T05:21:42.192Z,17.30
2018-06-29T05:24:10.356Z,17.40
2018-06-29T05:26:38.105Z,17.70
2018-06-29T05:29:05.738Z,17.90
2018-06-29T05:34:01.857Z,18.50
2018-06-29T05:36:29.502Z,18.90
2018-06-29T05:38:57.202Z,19.20
2018-06-29T05:43:52.710Z,19.50
2018-06-29T05:46:20.602Z,19.40
2018-06-29T05:48:48.734Z,19.40
2018-06-29T05:51:16.441Z,19.60
2018-06-29T05:53:44.081Z,20.30
2018-06-29T05:58:39.499Z,21.70
2018-06-29T06:01:09.069Z,22.60
2018-06-29T06:03:36.949Z,23.10
2018-06-29T06:06:04.976Z,23.60
2018-06-29T06:08:32.738Z,24.30
2018-06-29T06:11:01.170Z,24.50
2018-06-29T06:13:29.077Z,24.90
2018-06-29T06:16:00.050Z,25.40
2018-06-29T06:18:28.223Z,25.60
2018-06-29T06:20:56.060Z,25.70
2018-06-29T06:23:23.842Z,25.80
2018-06-29T06:25:51.597Z,26.20
2018-06-29T06:28:19.387Z,26.60
2018-06-29T06:30:47.301Z,26.80
2018-06-29T06:33:15.038Z,27.00
2018-06-29T06:38:10.902Z,27.20
2018-06-29T06:43:06.333Z,26.60
2018-06-29T06:45:34.209Z,26.90
2018-06-29T06:48:01.979Z,27.30
2018-06-29T06:50:30.156Z,27.20
2018-06-29T06:52:57.977Z,27.10
2018-06-29T06:55:25.623Z,27.40
2018-06-29T06:57:53.416Z,27.60
2018-06-29T07:00:21.123Z,27.90
2018-06-29T07:02:49.039Z,28.20
2018-06-29T07:07:44.222Z,27.90
2018-06-29T07:10:12.013Z,27.10
2018-06-29T07:12:40.281Z,26.30
2018-06-29T07:15:08.386Z,26.10
2018-06-29T07:17:36.176Z,25.80
2018-06-29T07:20:05.154Z,25.30
2018-06-29T07:22:33.344Z,25.00
2018-06-29T07:25:01.034Z,24.70
2018-06-29T07:27:28.927Z,24.50
2018-06-29T07:29:57.061Z,24.50
2018-06-29T07:32:24.766Z,24.60
2018-06-29T07:37:20.063Z,24.80
2018-06-29T07:39:47.775Z,24.80
2018-06-29T07:42:15.574Z,24.60
2018-06-29T07:44:43.274Z,24.50
2018-06-29T07:49:38.676Z,25.00
2018-06-29T07:57:02.993Z,25.30
2018-06-29T07:59:30.689Z,25.20
2018-06-29T08:01:58.907Z,25.40
2018-06-29T08:04:26.953Z,25.50
2018-06-29T08:06:55.571Z,25.20
2018-06-29T08:09:24.058Z,25.00
2018-06-29T08:11:51.781Z,24.60
2018-06-29T08:14:19.535Z,24.60
2018-06-29T08:16:47.468Z,24.50
2018-06-29T08:19:15.235Z,24.60
2018-06-29T08:24:11.327Z,24.80
2018-06-29T08:26:39.123Z,25.00
2018-06-29T08:31:36.379Z,25.30
2018-06-29T08:34:04.494Z,25.30
2018-06-29T08:36:32.332Z,25.20
2018-06-29T08:39:00.102Z,25.00
2018-06-29T08:46:24.148Z,25.30
2018-06-29T08:48:51.974Z,25.40
2018-06-29T08:51:19.744Z,25.40
2018-06-29T09:01:10.505Z,25.60
2018-06-29T09:03:38.652Z,25.30
2018-06-29T09:06:06.572Z,25.30
2018-06-29T09:08:34.260Z,25.40
2018-06-29T09:11:01.968Z,25.80
2018-06-29T09:13:29.654Z,26.00
2018-06-29T09:15:57.441Z,26.00
2018-06-29T09:18:25.116Z,26.00
2018-06-29T09:20:52.856Z,26.20
2018-06-29T09:23:20.538Z,26.30
2018-06-29T09:25:48.320Z,26.30
2018-06-29T09:28:16.039Z,26.10
2018-06-29T09:30:43.801Z,25.90
2018-06-29T09:33:11.536Z,26.10
2018-06-29T09:35:39.240Z,26.20
2018-06-29T09:38:07.028Z,26.60
2018-06-29T09:40:34.795Z,26.70
2018-06-29T09:43:02.523Z,26.70
2018-06-29T09:45:30.213Z,26.70
2018-06-29T09:47:58.069Z,26.50
2018-06-29T09:50:25.744Z,26.80
2018-06-29T09:52:53.582Z,27.10
2018-06-29T09:57:48.967Z,26.10
2018-06-29T10:00:21.243Z,26.20
2018-06-29T10:02:48.924Z,26.50
2018-06-29T10:05:16.722Z,26.70
2018-06-29T10:07:44.494Z,27.00
2018-06-29T10:10:12.192Z,27.30
2018-06-29T10:12:40.029Z,27.30
2018-06-29T10:15:07.746Z,26.90
2018-06-29T10:17:35.399Z,26.70
2018-06-29T10:20:03.387Z,26.90
2018-06-29T10:22:31.039Z,27.00
2018-06-29T10:24:58.835Z,27.00
2018-06-29T10:27:26.538Z,26.80
2018-06-29T10:29:54.692Z,26.70
2018-06-29T10:32:22.409Z,27.00
2018-06-29T10:34:50.068Z,26.90
2018-06-29T10:37:17.702Z,27.10
2018-06-29T10:39:45.742Z,27.10
2018-06-29T10:42:13.376Z,26.90
2018-06-29T10:44:41.328Z,27.10
2018-06-29T10:47:09.067Z,27.10
2018-06-29T10:49:36.800Z,27.20
2018-06-29T10:52:04.691Z,27.50
2018-06-29T10:54:32.446Z,27.60
2018-06-29T10:57:00.236Z,27.60
2018-06-29T10:59:27.885Z,27.30
2018-06-29T11:01:55.569Z,27.00
2018-06-29T11:04:23.552Z,26.70
2018-06-29T11:06:51.231Z,26.70
2018-06-29T11:09:19.151Z,27.00
2018-06-29T11:11:46.992Z,27.40
2018-06-29T11:16:42.827Z,27.60
2018-06-29T11:24:06.969Z,27.20
2018-06-29T11:26:35.657Z,27.10
2018-06-29T11:29:03.557Z,27.10
2018-06-29T11:31:31.342Z,26.90
2018-06-29T11:33:59.026Z,27.10
2018-06-29T11:36:26.717Z,26.80
2018-06-29T11:38:54.515Z,26.80
2018-06-29T11:41:22.091Z,27.00
2018-06-29T11:43:49.766Z,27.20
2018-06-29T11:48:45.354Z,27.80
2018-06-29T11:51:13.022Z,27.80
2018-06-29T11:53:40.853Z,27.80
2018-06-29T11:56:08.882Z,27.40
2018-06-29T11:58:36.604Z,27.40
2018-06-29T12:01:04.423Z,27.50
2018-06-29T12:03:32.284Z,27.70
2018-06-29T12:08:27.791Z,27.90
2018-06-29T12:10:55.518Z,27.70
2018-06-29T12:13:23.297Z,27.60
2018-06-29T12:15:52.177Z,27.50
2018-06-29T12:18:19.868Z,27.60
2018-06-29T12:20:47.634Z,27.70
2018-06-29T12:23:15.411Z,27.60
2018-06-29T12:28:10.609Z,27.60
2018-06-29T12:30:38.275Z,27.50
2018-06-29T12:33:06.104Z,27.80
2018-06-29T12:35:33.815Z,27.90
2018-06-29T12:38:01.496Z,27.80
2018-06-29T12:42:57.010Z,28.00
2018-06-29T12:50:20.130Z,28.10
2018-06-29T12:52:48.058Z,28.00
2018-06-29T12:55:15.974Z,27.90
2018-06-29T12:57:43.816Z,27.80
2018-06-29T13:00:11.629Z,27.50
2018-06-29T13:02:39.593Z,27.40
2018-06-29T13:05:07.597Z,27.30
2018-06-29T13:10:02.858Z,27.40
2018-06-29T13:12:30.510Z,27.50
2018-06-29T13:14:58.238Z,27.50
2018-06-29T13:17:26.080Z,27.80
2018-06-29T13:19:53.859Z,28.00
2018-06-29T13:22:22.712Z,28.10
2018-06-29T13:24:50.575Z,28.10
2018-06-29T13:27:18.213Z,28.10
2018-06-29T13:29:45.825Z,28.10
2018-06-29T13:32:13.494Z,28.10
2018-06-29T13:34:41.169Z,28.20
2018-06-29T13:37:08.988Z,28.20
2018-06-29T13:39:36.674Z,28.50
2018-06-29T13:42:04.462Z,28.50
2018-06-29T13:44:32.089Z,28.70
2018-06-29T13:46:59.872Z,28.90
2018-06-29T13:49:27.795Z,28.80
2018-06-29T13:51:55.475Z,28.70
2018-06-29T13:54:24.081Z,28.60
2018-06-29T13:56:51.924Z,28.50
2018-06-29T13:59:19.556Z,28.50
2018-06-29T14:01:47.380Z,28.10
2018-06-29T14:04:15.270Z,28.00
2018-06-29T14:09:10.936Z,28.00
2018-06-29T14:11:38.734Z,28.00
2018-06-29T14:14:06.602Z,27.90
2018-06-29T14:16:35.753Z,27.90
2018-06-29T14:19:04.817Z,28.00
2018-06-29T14:21:32.594Z,28.10
2018-06-29T14:24:00.291Z,28.20
2018-06-29T14:26:28.280Z,28.40
2018-06-29T14:28:56.164Z,28.40
2018-06-29T14:31:24.089Z,28.20
2018-06-29T14:33:52.121Z,28.10
2018-06-29T14:38:47.597Z,27.80
2018-06-29T14:41:15.595Z,27.80
2018-06-29T14:43:43.367Z,27.70
2018-06-29T14:46:11.026Z,27.80
2018-06-29T14:48:38.689Z,28.00
2018-06-29T14:51:07.197Z,28.10
2018-06-29T14:53:34.965Z,28.20
2018-06-29T14:56:02.782Z,28.40
2018-06-29T14:58:30.487Z,28.50
2018-06-29T15:00:58.574Z,28.60
2018-06-29T15:03:26.280Z,28.70
2018-06-29T15:05:54.102Z,28.70
2018-06-29T15:08:22.025Z,28.80
2018-06-29T15:10:49.790Z,28.80
2018-06-29T15:13:17.659Z,28.70
2018-06-29T15:15:45.419Z,28.70
2018-06-29T15:18:13.313Z,28.50
2018-06-29T15:20:41.035Z,28.40
2018-06-29T15:23:08.695Z,28.20
2018-06-29T15:25:37.519Z,28.20
2018-06-29T15:30:33.308Z,28.00
2018-06-29T15:33:00.919Z,28.00
2018-06-29T15:35:28.637Z,28.10
2018-06-29T15:37:56.476Z,28.20
2018-06-29T15:40:24.581Z,28.10
2018-06-29T15:42:52.289Z,28.10
2018-06-29T15:45:20.095Z,28.10
2018-06-29T15:47:47.867Z,28.00
2018-06-29T15:50:15.637Z,28.00
2018-06-29T15:52:43.947Z,27.90
2018-06-29T15:57:39.448Z,27.80
2018-06-29T16:00:08.710Z,27.80
2018-06-29T16:02:36.391Z,27.70
2018-06-29T16:05:04.355Z,27.70
2018-06-29T16:07:32.259Z,27.60
2018-06-29T16:10:00.208Z,27.60
2018-06-29T16:12:27.789Z,27.60
2018-06-29T16:17:23.263Z,27.60
2018-06-29T16:19:51.082Z,27.60
2018-06-29T16:24:46.344Z,27.70
2018-06-29T16:27:14.053Z,27.60
2018-06-29T16:29:41.772Z,27.60
2018-06-29T16:32:09.606Z,27.60
2018-06-29T16:34:37.315Z,27.60
2018-06-29T16:37:05.153Z,27.60
2018-06-29T16:39:33.595Z,27.60
2018-06-29T16:42:01.269Z,27.60
2018-06-29T16:49:24.274Z,27.40
2018-06-29T16:51:52.060Z,27.30
2018-06-29T16:54:19.886Z,27.20
2018-06-29T16:56:47.800Z,27.20
2018-06-29T16:59:15.636Z,27.20
2018-06-29T17:01:43.400Z,27.00
2018-06-29T17:04:11.132Z,26.90
2018-06-29T17:06:38.833Z,26.90
2018-06-29T17:09:07.795Z,27.00
2018-06-29T17:14:04.076Z,27.00
2018-06-29T17:16:32.104Z,27.00
2018-06-29T17:21:27.496Z,26.90
2018-06-29T17:23:55.273Z,27.00
2018-06-29T17:26:22.978Z,27.00
2018-06-29T17:28:50.822Z,26.80
2018-06-29T17:31:18.517Z,26.80
2018-06-29T17:33:46.367Z,26.70
2018-06-29T17:36:14.082Z,26.70
2018-06-29T17:38:42.055Z,26.60
2018-06-29T17:41:09.735Z,26.50
2018-06-29T17:43:37.453Z,26.50
2018-06-29T17:46:05.276Z,26.50
2018-06-29T17:48:32.912Z,26.40
2018-06-29T17:51:00.672Z,26.30
2018-06-29T17:53:28.371Z,26.20
2018-06-29T17:55:56.112Z,26.20
2018-06-29T17:58:23.857Z,26.20
2018-06-29T18:00:51.649Z,26.10
2018-06-29T18:03:19.323Z,25.60
2018-06-29T18:08:14.552Z,25.10
2018-06-29T18:10:42.388Z,25.10
2018-06-29T18:13:10.319Z,25.10
2018-06-29T18:15:38.096Z,25.00
2018-06-29T18:18:05.934Z,24.80
2018-06-29T18:20:33.614Z,24.70
2018-06-29T18:23:01.811Z,24.40
2018-06-29T18:25:29.484Z,24.10
2018-06-29T18:27:57.079Z,23.90
2018-06-29T18:30:24.792Z,23.80
2018-06-29T18:32:52.597Z,23.70
2018-06-29T18:35:20.283Z,23.60
2018-06-29T18:37:48.092Z,23.40
2018-06-29T18:40:15.875Z,23.10
2018-06-29T18:45:11.094Z,22.80
2018-06-29T18:47:38.783Z,22.70
2018-06-29T18:50:06.623Z,22.50
2018-06-29T18:55:01.949Z,22.30
2018-06-29T18:57:29.947Z,22.10
2018-06-29T18:59:57.597Z,21.90
2018-06-29T19:02:25.321Z,21.70
2018-06-29T19:04:52.944Z,21.60
2018-06-29T19:07:20.626Z,21.50
2018-06-29T19:09:48.300Z,21.30
2018-06-29T19:12:15.949Z,21.20
2018-06-29T19:14:44.011Z,21.00
2018-06-29T19:17:12.084Z,20.90
2018-06-29T19:19:39.767Z,20.80
2018-06-29T19:22:07.470Z,20.70
2018-06-29T19:24:35.277Z,20.60
2018-06-29T19:27:03.228Z,20.50
2018-06-29T19:29:30.919Z,20.40
2018-06-29T19:31:59.146Z,20.50
2018-06-29T19:34:27.417Z,20.60
2018-06-29T19:36:55.369Z,20.60
2018-06-29T19:39:23.224Z,20.60
2018-06-29T19:44:18.786Z,20.40
2018-06-29T19:46:46.654Z,20.20
2018-06-29T19:49:14.479Z,20.10
2018-06-29T19:54:09.982Z,19.70
2018-06-29T19:56:37.808Z,19.50
2018-06-29T19:59:05.514Z,19.40
2018-06-29T20:01:33.724Z,19.30
2018-06-29T20:04:01.363Z,19.20
2018-06-29T20:06:29.167Z,19.10
2018-06-29T20:08:56.876Z,18.90
2018-06-29T20:11:25.253Z,18.80
2018-06-29T20:13:53.168Z,18.60
2018-06-29T20:16:20.988Z,18.50
2018-06-29T20:18:48.779Z,18.40
2018-06-29T20:23:44.299Z,18.20
2018-06-29T20:26:12.841Z,18.10
2018-06-29T20:28:40.555Z,17.90
2018-06-29T20:31:08.379Z,17.80
2018-06-29T20:33:36.081Z,17.70
2018-06-29T20:36:03.986Z,17.60
2018-06-29T20:38:31.748Z,17.50
2018-06-29T20:40:59.481Z,17.40
2018-06-29T20:43:27.436Z,17.30
2018-06-29T20:48:22.841Z,17.10
2018-06-29T20:50:50.698Z,17.10
2018-06-29T20:53:18.441Z,17.00
2018-06-29T20:55:46.098Z,16.90
2018-06-29T20:58:13.774Z,16.90
2018-06-29T21:00:41.540Z,16.80
2018-06-29T21:03:09.337Z,16.70
2018-06-29T21:05:37.118Z,16.60
2018-06-29T21:08:05.128Z,16.40
2018-06-29T21:10:32.965Z,16.30
2018-06-29T21:13:00.662Z,16.30
2018-06-29T21:15:29.047Z,16.20
2018-06-29T21:17:56.824Z,16.20
2018-06-29T21:22:52.822Z,16.10
2018-06-29T21:25:20.491Z,16.00
2018-06-29T21:27:48.172Z,16.00
2018-06-29T21:30:16.168Z,16.00
2018-06-29T21:35:11.638Z,15.80
2018-06-29T21:37:39.448Z,15.80
2018-06-29T21:40:07.229Z,15.70
2018-06-29T21:42:35.135Z,15.70
2018-06-29T21:45:03.162Z,15.60
2018-06-29T21:49:58.466Z,15.60
2018-06-29T21:52:26.273Z,15.50
2018-06-29T21:54:54.321Z,15.40
2018-06-29T21:59:49.895Z,15.20
2018-06-29T22:02:17.558Z,15.20
2018-06-29T22:04:45.216Z,15.10
2018-06-29T22:07:12.930Z,15.10
2018-06-29T22:12:08.212Z,14.90
2018-06-29T22:14:36.022Z,14.90
2018-06-29T22:17:04.510Z,14.90
2018-06-29T22:19:32.207Z,14.80
2018-06-29T22:22:00.028Z,14.80
2018-06-29T22:24:27.683Z,14.70
2018-06-29T22:29:23.033Z,14.60
2018-06-29T22:31:50.738Z,14.50
2018-06-29T22:34:18.461Z,14.50
2018-06-29T22:36:46.487Z,14.50
2018-06-29T22:39:14.069Z,14.40
2018-06-29T22:44:10.192Z,14.30
2018-06-29T22:49:05.766Z,14.30
2018-06-29T22:51:33.828Z,14.20
2018-06-29T22:54:01.503Z,14.20
2018-06-29T22:56:29.369Z,14.20
2018-06-29T22:58:57.171Z,14.20
2018-06-29T23:01:24.945Z,14.20
2018-06-29T23:03:54.690Z,14.10
2018-06-29T23:06:23.629Z,14.10
2018-06-29T23:08:51.280Z,14.20
2018-06-29T23:11:19.352Z,14.00
2018-06-29T23:13:47.051Z,14.00
2018-06-29T23:18:42.445Z,13.90
2018-06-29T23:21:10.171Z,13.90
2018-06-29T23:23:37.887Z,13.90
2018-06-29T23:26:05.653Z,13.80
2018-06-29T23:28:33.289Z,13.80
2018-06-29T23:31:01.108Z,13.70
2018-06-29T23:33:28.763Z,13.80
2018-06-29T23:35:56.457Z,13.70
2018-06-29T23:38:24.113Z,13.70
2018-06-29T23:40:51.837Z,13.70
2018-06-29T23:45:47.234Z,13.60
2018-06-29T23:48:14.927Z,13.60
2018-06-29T23:50:43.519Z,13.50
2018-06-29T23:53:11.369Z,13.50
2018-06-29T23:58:06.801Z,13.40
